Time;durP1;ratioP1;P1;durP2;ratioP2;P2;SDS_P1;SDS_P2;PMS_P1;PMS_P2;Temp;Humidity;BMP_temperature;BMP_pressure;BME280_temperature;BME280_humidity;BME280_pressure;Samples;Min_cycle;Max_cycle;Signal;HPM_P1;HPM_P2
2022/07/28 00:00:57;;;;;;;2.30;0.80;;;17.60;62.10;;;;;;10350788;28;20224;-70
2022/07/28 00:05:58;;;;;;;2.73;1.10;;;17.50;62.90;;;;;;10372970;28;20209;-70
2022/07/28 00:10:58;;;;;;;5.17;0.80;;;17.50;63.20;;;;;;10353341;28;20260;-69
2022/07/28 00:15:59;;;;;;;2.97;1.00;;;17.40;63.40;;;;;;10356373;28;20633;-69
2022/07/28 00:21:01;;;;;;;5.93;1.17;;;17.30;63.60;;;;;;10352825;28;20716;-69
2022/07/28 00:26:01;;;;;;;4.13;0.90;;;17.30;63.80;;;;;;10351142;28;20278;-70
2022/07/28 00:31:03;;;;;;;2.70;0.83;;;17.20;63.90;;;;;;10357833;28;20631;-70
2022/07/28 00:36:03;;;;;;;4.33;1.33;;;17.20;64.00;;;;;;10350364;28;20244;-71
2022/07/28 00:41:10;;;;;;;3.67;1.07;;;17.10;64.30;;;;;;10351171;28;20248;-71
2022/07/28 00:46:17;;;;;;;2.97;1.20;;;17.10;64.50;;;;;;10351470;28;20625;-70
2022/07/28 00:51:20;;;;;;;2.63;1.07;;;17.00;64.90;;;;;;10353504;28;20287;-70
2022/07/28 00:56:22;;;;;;;1.70;0.90;;;16.90;65.10;;;;;;10352987;28;20274;-70
2022/07/28 01:01:23;;;;;;;4.90;1.10;;;16.90;65.70;;;;;;10356165;28;20240;-72
2022/07/28 01:06:48;;;;;;;2.23;0.97;;;16.80;65.70;;;;;;10363256;28;20255;-70
2022/07/28 01:12:00;;;;;;;3.80;1.00;;;16.80;66.00;;;;;;10356381;28;20599;-70
2022/07/28 01:17:28;;;;;;;3.50;1.07;;;16.70;66.40;;;;;;10359556;28;20748;-70
2022/07/28 01:22:33;;;;;;;5.37;1.27;;;16.60;66.70;;;;;;10369127;28;20217;-71
2022/07/28 01:27:51;;;;;;;3.40;1.07;;;16.60;67.00;;;;;;10361020;28;20224;-70
2022/07/28 01:33:00;;;;;;;5.43;1.10;;;16.50;68.00;;;;;;10376290;28;20657;-70
2022/07/28 01:38:04;;;;;;;4.40;1.40;;;16.50;67.20;;;;;;10359369;28;20308;-71
2022/07/28 01:43:08;;;;;;;5.87;1.60;;;16.50;67.20;;;;;;10356105;28;20243;-69
2022/07/28 01:48:10;;;;;;;4.83;1.63;;;16.50;67.40;;;;;;10356361;28;20707;-70
2022/07/28 01:53:13;;;;;;;7.13;1.57;;;16.60;67.60;;;;;;10357787;28;20252;-70
2022/07/28 01:58:15;;;;;;;4.13;1.67;;;16.60;67.20;;;;;;10356443;28;20224;-70
2022/07/28 02:03:18;;;;;;;2.67;1.10;;;16.60;67.00;;;;;;10358724;28;20243;-71
2022/07/28 02:08:21;;;;;;;2.70;1.13;;;16.50;67.10;;;;;;10360193;28;20225;-70
2022/07/28 02:13:25;;;;;;;2.77;0.87;;;16.50;67.20;;;;;;10360187;28;20213;-71
2022/07/28 02:18:27;;;;;;;4.97;1.10;;;16.40;67.30;;;;;;10360203;28;20220;-70
2022/07/28 02:23:28;;;;;;;3.23;1.00;;;16.40;67.50;;;;;;10359538;28;20227;-70
2022/07/28 02:28:29;;;;;;;6.93;1.47;;;16.30;67.80;;;;;;10352454;28;20225;-71
2022/07/28 02:33:33;;;;;;;3.90;1.20;;;16.40;67.90;;;;;;10366779;28;20240;-70
2022/07/28 02:38:40;;;;;;;2.47;1.07;;;16.30;68.00;;;;;;10363410;28;20275;-70
2022/07/28 02:43:44;;;;;;;5.23;1.37;;;16.30;68.10;;;;;;10358573;28;20224;-68
2022/07/28 02:48:49;;;;;;;2.20;0.90;;;16.30;68.10;;;;;;10351932;28;20248;-69
2022/07/28 02:53:51;;;;;;;2.50;1.17;;;16.30;68.20;;;;;;10357070;28;20251;-70
2022/07/28 02:58:53;;;;;;;2.03;1.00;;;16.30;68.10;;;;;;10359788;28;20237;-70
2022/07/28 03:03:53;;;;;;;3.07;1.23;;;16.40;68.20;;;;;;10356432;28;20211;-70
2022/07/28 03:08:55;;;;;;;2.90;1.03;;;16.40;68.10;;;;;;10352516;28;20228;-70
2022/07/28 03:13:55;;;;;;;3.63;1.07;;;16.30;68.20;;;;;;10355271;28;20215;-70
2022/07/28 03:18:56;;;;;;;2.60;1.20;;;16.30;68.20;;;;;;10351421;28;20240;-70
2022/07/28 03:23:57;;;;;;;6.83;1.43;;;16.30;68.10;;;;;;10370719;28;20294;-70
2022/07/28 03:28:59;;;;;;;5.90;1.63;;;16.40;68.30;;;;;;10349615;28;20284;-69
2022/07/28 03:33:59;;;;;;;3.97;1.30;;;16.40;69.20;;;;;;10361793;28;20220;-69
2022/07/28 03:39:03;;;;;;;3.17;1.43;;;16.20;68.50;;;;;;10351959;28;20228;-70
2022/07/28 03:44:04;;;;;;;1.87;1.00;;;16.20;69.00;;;;;;10328505;28;20307;-70
2022/07/28 03:49:08;;;;;;;6.40;1.83;;;16.10;69.10;;;;;;10344104;28;20243;-70
2022/07/28 03:54:08;;;;;;;4.30;2.00;;;16.20;69.10;;;;;;10358591;28;20356;-70
2022/07/28 03:59:12;;;;;;;7.70;1.87;;;16.20;68.90;;;;;;10352876;28;20299;-70
2022/07/28 04:04:13;;;;;;;7.93;2.50;;;16.20;68.90;;;;;;10376864;28;20217;-71
2022/07/28 04:09:14;;;;;;;3.70;1.40;;;16.20;69.20;;;;;;10355480;28;20593;-70
2022/07/28 04:14:16;;;;;;;5.73;1.37;;;16.20;69.00;;;;;;10355327;28;20220;-69
2022/07/28 04:19:17;;;;;;;9.23;1.73;;;16.10;69.30;;;;;;10355478;28;20781;-70
2022/07/28 04:24:17;;;;;;;8.07;1.77;;;16.20;69.30;;;;;;10362642;28;20354;-70
2022/07/28 04:29:18;;;;;;;13.97;1.47;;;16.10;69.40;;;;;;10354233;28;20229;-70
2022/07/28 04:34:18;;;;;;;6.93;1.50;;;16.10;69.60;;;;;;10355906;28;20314;-70
2022/07/28 04:39:19;;;;;;;4.13;1.27;;;16.20;69.50;;;;;;10373983;28;20623;-70
2022/07/28 04:44:20;;;;;;;2.77;1.20;;;16.20;69.40;;;;;;10368515;28;20229;-70
2022/07/28 04:49:20;;;;;;;7.23;1.60;;;16.30;69.20;;;;;;10364182;28;20643;-69
2022/07/28 04:54:21;;;;;;;3.67;1.53;;;16.30;69.20;;;;;;10360859;28;20220;-71
2022/07/28 04:59:21;;;;;;;6.23;1.93;;;16.40;68.90;;;;;;10364847;28;20222;-70
2022/07/28 05:04:23;;;;;;;6.33;1.90;;;16.40;68.60;;;;;;10368542;28;20254;-71
2022/07/28 05:09:24;;;;;;;10.43;2.27;;;16.60;68.70;;;;;;10354526;28;20680;-71
2022/07/28 05:14:24;;;;;;;5.87;2.00;;;16.70;68.30;;;;;;10363822;28;20224;-71
2022/07/28 05:19:25;;;;;;;4.07;1.93;;;16.70;68.90;;;;;;10354164;28;20224;-71
2022/07/28 05:24:28;;;;;;;4.43;1.90;;;16.70;68.20;;;;;;10361589;28;20239;-70
2022/07/28 05:29:29;;;;;;;6.67;1.83;;;16.70;68.40;;;;;;10365368;28;20704;-69
2022/07/28 05:34:30;;;;;;;6.23;2.07;;;16.80;68.50;;;;;;10355097;28;20300;-70
2022/07/28 05:39:35;;;;;;;6.10;1.77;;;16.90;67.80;;;;;;10361887;28;20260;-70
2022/07/28 05:44:36;;;;;;;7.53;2.65;;;;;;;;;;10358930;28;20821;-72
2022/07/28 05:49:37;;;;;;;9.93;2.30;;;;;;;;;;10354712;28;20228;-72
2022/07/28 05:54:38;;;;;;;5.97;1.80;;;;;;;;;;10368276;28;20220;-72
2022/07/28 05:59:39;;;;;;;4.93;1.60;;;;;;;;;;10358447;28;20835;-72
2022/07/28 06:04:40;;;;;;;4.63;1.27;;;;;;;;;;10360630;28;20227;-72
2022/07/28 06:09:42;;;;;;;7.23;1.83;;;;;;;;;;10367174;28;20267;-72
2022/07/28 06:14:43;;;;;;;4.50;1.60;;;;;;;;;;10351588;28;20720;-72
2022/07/28 06:19:44;;;;;;;9.03;1.90;;;;;;;;;;10360291;28;20229;-72
2022/07/28 06:24:45;;;;;;;4.97;1.97;;;;;;;;;;10365759;28;20228;-72
2022/07/28 06:29:46;;;;;;;3.63;1.17;;;;;;;;;;10351920;28;20237;-73
2022/07/28 06:34:47;;;;;;;8.67;1.57;;;;;;;;;;10358322;28;20713;-73
2022/07/28 06:39:51;;;;;;;5.83;1.27;;;;;;;;;;10359611;28;20227;-72
2022/07/28 06:44:53;;;;;;;6.97;2.07;;;;;;;;;;10359055;28;20214;-72
2022/07/28 06:49:53;;;;;;;5.83;1.50;;;;;;;;;;10356413;28;20226;-72
2022/07/28 06:54:55;;;;;;;6.10;1.23;;;;;;;;;;10360390;28;20252;-72
2022/07/28 06:59:56;;;;;;;5.30;1.33;;;;;;;;;;10348444;28;20219;-72
2022/07/28 07:04:57;;;;;;;3.47;1.50;;;;;;;;;;10357801;28;20640;-73
2022/07/28 07:09:58;;;;;;;6.87;1.60;;;;;;;;;;10351045;28;20311;-73
2022/07/28 07:14:59;;;;;;;6.13;1.50;;;;;;;;;;10352686;28;20217;-72
2022/07/28 07:20:00;;;;;;;4.27;1.60;;;;;;;;;;10363328;28;20705;-72
2022/07/28 07:25:12;;;;;;;5.03;1.70;;;;;;;;;;10358142;28;20225;-72
2022/07/28 07:30:14;;;;;;;5.87;1.70;;;;;;;;;;10364776;28;20225;-72
2022/07/28 07:35:18;;;;;;;7.07;1.73;;;;;;;;;;10357074;28;20901;-72
2022/07/28 07:40:19;;;;;;;4.73;1.80;;;;;;;;;;10358621;28;20305;-72
2022/07/28 07:45:20;;;;;;;6.80;1.70;;;;;;;;;;10354259;28;20198;-73
2022/07/28 07:50:21;;;;;;;5.80;1.80;;;;;;;;;;10350920;28;20217;-72
2022/07/28 07:55:22;;;;;;;5.73;1.50;;;;;;;;;;10360750;28;20198;-73
2022/07/28 08:00:23;;;;;;;4.60;1.50;;;;;;;;;;10355973;28;20192;-73
2022/07/28 08:05:24;;;;;;;5.77;1.57;;;;;;;;;;10356909;28;20603;-73
2022/07/28 08:10:28;;;;;;;7.40;1.80;;;;;;;;;;10357763;28;20256;-72
2022/07/28 08:15:29;;;;;;;3.87;1.67;;;;;;;;;;10353919;28;20267;-72
2022/07/28 08:20:30;;;;;;;3.30;1.70;;;;;;;;;;10363570;28;20312;-73
2022/07/28 08:25:37;;;;;;;4.87;1.70;;;;;;;;;;10348274;28;20328;-73
2022/07/28 08:30:38;;;;;;;7.03;1.80;;;;;;;;;;10362354;28;20232;-73
2022/07/28 08:35:40;;;;;;;4.70;1.80;;;;;;;;;;10361375;28;20847;-72
2022/07/28 08:40:41;;;;;;;4.10;1.83;;;;;;;;;;10354704;28;20224;-72
2022/07/28 08:45:45;;;;;;;5.53;1.80;;;;;;;;;;10346756;28;20232;-72
2022/07/28 08:50:47;;;;;;;7.57;1.97;;;;;;;;;;10352793;28;20233;-72
2022/07/28 08:55:48;;;;;;;8.77;1.70;;;;;;;;;;10354933;28;20305;-73
2022/07/28 09:00:55;;;;;;;6.70;1.80;;;;;;;;;;10353337;28;20222;-72
2022/07/28 09:05:57;;;;;;;5.43;2.30;;;;;;;;;;10347935;28;20296;-72
2022/07/28 09:10:58;;;;;;;3.53;1.60;;;;;;;;;;10351088;28;20312;-72
2022/07/28 09:15:59;;;;;;;3.80;2.00;;;;;;;;;;10348688;28;20220;-73
2022/07/28 09:21:00;;;;;;;5.57;1.93;;;;;;;;;;10359496;28;20681;-72
2022/07/28 09:26:10;;;;;;;4.23;2.23;;;;;;;;;;10364039;28;20218;-73
2022/07/28 09:31:12;;;;;;;2.60;1.73;;;;;;;;;;10354034;28;20838;-72
2022/07/28 09:36:15;;;;;;;8.27;2.20;;;;;;;;;;10361439;28;20225;-72
2022/07/28 09:41:18;;;;;;;7.03;2.00;;;;;;;;;;10369539;28;20233;-72
2022/07/28 09:46:20;;;;;;;6.00;1.80;;;;;;;;;;10362598;28;20744;-73
2022/07/28 09:51:21;;;;;;;6.13;2.17;;;;;;;;;;10365801;28;20312;-72
2022/07/28 09:56:24;;;;;;;5.03;1.73;;;;;;;;;;10354566;28;20292;-73
2022/07/28 10:01:27;;;;;;;4.47;1.73;;;;;;;;;;10365902;28;20240;-72
2022/07/28 10:06:29;;;;;;;2.23;1.50;;;;;;;;;;10353766;28;20248;-72
2022/07/28 10:11:30;;;;;;;3.40;1.80;;;;;;;;;;10360135;28;20650;-72
2022/07/28 10:16:35;;;;;;;5.00;2.30;;;;;;;;;;10360016;28;20218;-73
2022/07/28 10:21:44;;;;;;;4.10;2.07;;;;;;;;;;10368334;28;20244;-72
2022/07/28 10:26:46;;;;;;;5.00;1.60;;;;;;;;;;10365731;28;20237;-72
2022/07/28 10:31:47;;;;;;;6.43;1.63;;;;;;;;;;10365302;28;20241;-72
2022/07/28 10:36:53;;;;;;;6.90;2.00;;;;;;;;;;10350723;28;20249;-72
2022/07/28 10:41:55;;;;;;;4.83;1.90;;;;;;;;;;10351361;28;20223;-72
2022/07/28 10:46:57;;;;;;;4.27;1.60;;;;;;;;;;10352695;28;20229;-72
2022/07/28 10:51:58;;;;;;;4.70;1.57;;;;;;;;;;10365644;28;20221;-73
2022/07/28 10:57:03;;;;;;;4.53;1.70;;;;;;;;;;10353432;28;20656;-72
2022/07/28 11:02:04;;;;;;;7.20;1.80;;;;;;;;;;10354650;28;20715;-72
2022/07/28 11:07:12;;;;;;;3.13;1.50;;;;;;;;;;10357388;28;20260;-72
2022/07/28 11:12:15;;;;;;;6.53;1.53;;;;;;;;;;10354683;28;20213;-74
2022/07/28 11:17:17;;;;;;;7.00;2.17;;;;;;;;;;10370330;28;20218;-72
2022/07/28 11:22:20;;;;;;;2.07;1.40;;;;;;;;;;10354570;28;20387;-72
2022/07/28 11:27:50;;;;;;;3.90;1.80;;;;;;;;;;10358062;28;20229;-73
2022/07/28 11:32:54;;;;;;;3.00;1.50;;;;;;;;;;10350417;28;20233;-72
2022/07/28 11:38:04;;;;;;;2.83;1.63;;;;;;;;;;10354517;28;20225;-72
2022/07/28 11:43:21;;;;;;;8.00;1.77;;;;;;;;;;10359474;28;20224;-73
2022/07/28 11:48:24;;;;;;;2.80;1.70;;;;;;;;;;10354664;28;20589;-73
2022/07/28 11:53:34;;;;;;;3.47;1.90;;;;;;;;;;10354795;28;20632;-73
2022/07/28 11:58:35;;;;;;;4.67;1.60;;;;;;;;;;10348928;28;20233;-72
2022/07/28 12:03:39;;;;;;;8.03;1.83;;;;;;;;;;10355352;28;20232;-72
2022/07/28 12:08:59;;;;;;;5.57;1.90;;;;;;;;;;10362408;28;20299;-73
2022/07/28 12:14:04;;;;;;;5.93;1.93;;;;;;;;;;10350018;28;20692;-73
2022/07/28 12:19:07;;;;;;;3.17;1.63;;;;;;;;;;10347462;28;20221;-73
2022/07/28 12:24:10;;;;;;;5.50;1.60;;;;;;;;;;10362138;28;20308;-73
2022/07/28 12:29:12;;;;;;;2.80;1.50;;;;;;;;;;10362094;28;20217;-73
2022/07/28 12:34:13;;;;;;;5.77;1.90;;;;;;;;;;10355029;28;20221;-73
2022/07/28 12:39:16;;;;;;;4.40;1.60;;;;;;;;;;10349801;28;20305;-72
2022/07/28 12:44:17;;;;;;;5.50;1.83;;;;;;;;;;10351603;28;20572;-73
2022/07/28 12:49:24;;;;;;;3.47;1.70;;;;;;;;;;10350625;28;20295;-72
2022/07/28 12:54:37;;;;;;;6.60;1.70;;;;;;;;;;10359827;28;20214;-72
2022/07/28 12:59:39;;;;;;;3.07;1.70;;;;;;;;;;10353931;28;20216;-72
2022/07/28 13:04:41;;;;;;;4.40;2.10;;;;;;;;;;10341415;28;20719;-72
2022/07/28 13:09:46;;;;;;;3.67;1.80;;;;;;;;;;10344871;28;20611;-72
2022/07/28 13:14:50;;;;;;;6.77;1.90;;;;;;;;;;10352668;28;20299;-72
2022/07/28 13:20:11;;;;;;;2.73;1.50;;;;;;;;;;10348969;28;20236;-72
2022/07/28 13:25:13;;;;;;;4.23;1.47;;;;;;;;;;10354059;28;20311;-72
2022/07/28 13:30:14;;;;;;;3.87;1.60;;;;;;;;;;10349397;28;20220;-72
2022/07/28 13:35:15;;;;;;;6.77;1.60;;;;;;;;;;10350370;28;20304;-72
2022/07/28 13:40:16;;;;;;;5.43;1.67;;;;;;;;;;10360892;28;20243;-72
2022/07/28 13:45:17;;;;;;;5.83;1.63;;;;;;;;;;10356626;28;20186;-72
2022/07/28 13:50:21;;;;;;;6.40;1.80;;;;;;;;;;10350251;28;20255;-73
2022/07/28 13:55:22;;;;;;;2.70;1.53;;;;;;;;;;10347439;28;20194;-73
2022/07/28 14:00:23;;;;;;;2.93;1.70;;;;;;;;;;10353719;28;20221;-72
2022/07/28 14:05:24;;;;;;;4.90;1.73;;;;;;;;;;10358047;28;20284;-72
2022/07/28 14:10:25;;;;;;;4.17;1.97;;;;;;;;;;10349759;28;20268;-72
2022/07/28 14:15:26;;;;;;;4.03;1.70;;;;;;;;;;10359158;28;20238;-72
2022/07/28 14:20:27;;;;;;;5.40;2.03;;;;;;;;;;10360319;28;20304;-71
2022/07/28 14:25:31;;;;;;;2.93;1.80;;;;;;;;;;10357971;28;20300;-73
2022/07/28 14:30:35;;;;;;;4.10;1.77;;;;;;;;;;10352949;28;20232;-72
2022/07/28 14:35:39;;;;;;;4.27;2.10;;;;;;;;;;10367100;28;20217;-72
2022/07/28 14:40:40;;;;;;;2.67;1.80;;;;;;;;;;10366067;28;20217;-72
2022/07/28 14:45:41;;;;;;;3.97;1.80;;;;;;;;;;10350780;28;20217;-73
2022/07/28 14:50:44;;;;;;;7.37;1.93;;;;;;;;;;10366092;28;20241;-73
2022/07/28 14:55:45;;;;;;;3.87;2.00;;;;;;;;;;10360613;28;20218;-73
2022/07/28 15:00:46;;;;;;;2.93;1.57;;;;;;;;;;10357802;28;20724;-73
2022/07/28 15:07:41;;;;;;;10.57;2.20;;;;;;;;;;10471450;28;20584;-72
2022/07/28 15:12:42;;;;;;;9.40;2.20;;;;;;;;;;10470561;28;20218;-71
2022/07/28 15:17:43;;;;;;;8.53;2.30;;;;;;;;;;10462504;28;20649;-72
2022/07/28 15:22:44;;;;;;;3.53;1.83;;;;;;;;;;10468935;28;20212;-71
2022/07/28 15:27:48;;;;;;;5.77;2.27;;;;;;;;;;10478611;28;20215;-73
2022/07/28 15:32:49;;;;;;;5.70;2.10;;;;;;;;;;10470202;28;20221;-72
2022/07/28 15:37:50;;;;;;;4.30;1.90;;;;;;;;;;10467624;28;20673;-72
2022/07/28 15:42:51;;;;;;;7.07;2.10;;;;;;;;;;10462675;28;20228;-72
2022/07/28 15:47:54;;;;;;;6.57;2.23;;;;;;;;;;10470231;28;20685;-72
2022/07/28 15:52:55;;;;;;;5.33;2.27;;;;;;;;;;10464237;28;20217;-72
2022/07/28 15:57:56;;;;;;;3.87;1.90;;;;;;;;;;10464395;28;20219;-72
2022/07/28 16:02:57;;;;;;;7.70;2.07;;;;;;;;;;10474343;28;20674;-72
2022/07/28 16:07:59;;;;;;;6.67;2.20;;;;;;;;;;10472285;28;20215;-71
2022/07/28 16:13:00;;;;;;;6.23;2.27;;;;;;;;;;10466700;28;20270;-71
2022/07/28 16:18:07;;;;;;;5.10;2.23;;;;;;;;;;10442022;28;20648;-71
2022/07/28 16:23:08;;;;;;;6.07;2.20;;;;;;;;;;10444803;28;20236;-71
2022/07/28 16:28:12;;;;;;;4.83;2.00;;;;;;;;;;10429820;28;20638;-72
2022/07/28 16:33:13;;;;;;;6.60;1.87;;;;;;;;;;10453853;28;20215;-72
2022/07/28 16:38:15;;;;;;;6.17;2.00;;;;;;;;;;10455342;28;20693;-72
2022/07/28 16:43:16;;;;;;;4.47;1.83;;;;;;;;;;10452267;28;20232;-72
2022/07/28 16:48:17;;;;;;;3.80;1.97;;;;;;;;;;10438272;28;20218;-72
2022/07/28 16:53:18;;;;;;;4.93;2.40;;;;;;;;;;10432985;28;20234;-72
2022/07/28 16:58:21;;;;;;;2.03;1.63;;;;;;;;;;10444147;28;20210;-72
2022/07/28 17:03:21;;;;;;;7.10;2.03;;;;;;;;;;10432216;28;20277;-70
2022/07/28 17:08:22;;;;;;;4.97;1.73;;;;;;;;;;10437553;28;20566;-72
2022/07/28 17:13:26;;;;;;;5.70;2.10;;;;;;;;;;10435043;28;20662;-72
2022/07/28 17:18:27;;;;;;;4.10;2.20;;;;;;;;;;10431881;28;20223;-72
2022/07/28 17:23:28;;;;;;;3.90;2.00;;;;;;;;;;10440277;28;20228;-72
2022/07/28 17:28:29;;;;;;;5.20;2.20;;;;;;;;;;10437592;28;20229;-72
2022/07/28 17:33:31;;;;;;;5.17;1.83;;;;;;;;;;10431730;28;20322;-73
2022/07/28 17:38:32;;;;;;;7.07;2.20;;;;;;;;;;10438589;28;20269;-71
2022/07/28 17:43:34;;;;;;;5.27;2.23;;;;;;;;;;10436347;28;20234;-72
2022/07/28 17:48:37;;;;;;;5.00;2.20;;;;;;;;;;10437116;28;20591;-72
2022/07/28 17:53:38;;;;;;;5.43;2.37;;;;;;;;;;10447387;28;20250;-72
2022/07/28 17:58:39;;;;;;;6.50;2.40;;;;;;;;;;10445738;28;20768;-72
2022/07/28 18:03:52;;;;;;;5.17;2.43;;;;;;;;;;10435061;28;20232;-72
2022/07/28 18:08:53;;;;;;;9.10;3.03;;;;;;;;;;10439642;28;20222;-72
2022/07/28 18:13:54;;;;;;;4.23;2.00;;;;;;;;;;10442842;28;20222;-73
2022/07/28 18:19:01;;;;;;;3.40;1.80;;;;;;;;;;10432406;28;20254;-73
2022/07/28 18:24:07;;;;;;;4.70;2.23;;;;;;;;;;10432787;28;20246;-73
2022/07/28 18:29:08;;;;;;;4.83;1.70;;;;;;;;;;10430499;28;20214;-73
2022/07/28 18:34:09;;;;;;;5.03;2.00;;;;;;;;;;10436037;28;20259;-73
2022/07/28 18:39:11;;;;;;;5.13;2.10;;;;;;;;;;10432627;28;20311;-73
2022/07/28 18:44:12;;;;;;;9.13;2.27;;;;;;;;;;10448792;28;20341;-74
2022/07/28 18:49:13;;;;;;;6.27;2.07;;;;;;;;;;10423001;28;20223;-73
2022/07/28 18:54:14;;;;;;;9.30;2.50;;;;;;;;;;10446740;28;20227;-73
2022/07/28 18:59:15;;;;;;;6.77;2.10;;;;;;;;;;10454688;28;20211;-73
2022/07/28 19:04:16;;;;;;;3.63;1.90;;;;;;;;;;10446092;28;20286;-72
2022/07/28 19:09:17;;;;;;;6.63;2.17;;;;;;;;;;10430849;28;20234;-73
2022/07/28 19:14:18;;;;;;;5.10;2.33;;;;;;;;;;10445097;28;20303;-73
2022/07/28 19:19:20;;;;;;;7.03;2.20;;;;;;;;;;10441282;28;20766;-73
2022/07/28 19:24:21;;;;;;;10.50;2.37;;;;;;;;;;10443165;28;20225;-73
2022/07/28 19:29:23;;;;;;;5.40;2.37;;;;;;;;;;10441473;28;20326;-73
2022/07/28 19:34:24;;;;;;;4.03;2.03;;;;;;;;;;10423765;28;20263;-73
2022/07/28 19:39:27;;;;;;;3.97;1.97;;;;;;;;;;10422932;28;20224;-73
2022/07/28 19:44:29;;;;;;;5.57;2.20;;;;;;;;;;10429606;28;20225;-73
2022/07/28 19:49:30;;;;;;;8.97;2.70;;;;;;;;;;10441280;28;20217;-74
2022/07/28 19:54:31;;;;;;;11.03;2.70;;;;;;;;;;10445531;28;20247;-73
2022/07/28 19:59:32;;;;;;;4.97;2.57;;;;;;;;;;10433808;28;20215;-72
2022/07/28 20:04:33;;;;;;;4.03;2.27;;;;;;;;;;10452100;28;20228;-73
2022/07/28 20:09:40;;;;;;;4.37;2.17;;;;;;;;;;10431372;28;20244;-73
2022/07/28 20:14:41;;;;;;;6.30;2.23;;;;;;;;;;10446064;28;20589;-73
2022/07/28 20:19:42;;;;;;;4.60;2.50;;;;;;;;;;10441298;28;20216;-74
2022/07/28 20:24:43;;;;;;;4.13;2.03;;;;;;;;;;10445454;28;20597;-67
2022/07/28 20:29:44;;;;;;;5.03;2.17;;;;;;;;;;10445169;28;20227;-68
2022/07/28 20:34:45;;;;;;;5.83;2.17;;;;;;;;;;10432410;28;20679;-67
2022/07/28 20:39:47;;;;;;;8.90;2.40;;;;;;;;;;10447364;28;20239;-67
2022/07/28 20:44:48;;;;;;;13.70;2.30;;;;;;;;;;10447766;28;20319;-68
2022/07/28 20:49:49;;;;;;;10.10;2.83;;;;;;;;;;10435917;28;20220;-68
2022/07/28 20:54:50;;;;;;;7.82;2.40;;;;;;;;;;10452193;28;20495;-69
2022/07/28 20:59:51;;;;;;;5.43;1.60;;;;;;;;;;10439980;28;20267;-68
2022/07/28 21:04:52;;;;;;;4.87;2.07;;;;;;;;;;10439050;28;20914;-68
2022/07/28 21:09:53;;;;;;;5.93;2.03;;;;;;;;;;10439893;28;20220;-69
2022/07/28 21:14:54;;;;;;;8.07;2.40;;;;;;;;;;10448051;28;20230;-69
2022/07/28 21:19:55;;;;;;;4.17;2.30;;;;;;;;;;10440820;28;20229;-69
2022/07/28 21:25:01;;;;;;;4.30;1.83;;;;;;;;;;10440201;28;20258;-68
2022/07/28 21:30:03;;;;;;;5.57;2.03;;;;;;;;;;10441442;28;20213;-68
2022/07/28 21:35:04;;;;;;;8.07;2.47;;;;;;;;;;10435364;28;20230;-68
2022/07/28 21:40:08;;;;;;;5.77;2.40;;;;;;;;;;10430996;28;20230;-69
2022/07/28 21:45:09;;;;;;;21.47;2.97;;;;;;;;;;10428462;28;20240;-69
2022/07/28 21:50:10;;;;;;;5.87;2.00;;;;;;;;;;10443243;28;20196;-68
2022/07/28 21:55:11;;;;;;;10.10;2.27;;;;;;;;;;10430498;28;20261;-68
2022/07/28 22:00:20;;;;;;;9.33;2.00;;;;;;;;;;10437136;28;20222;-68
2022/07/28 22:05:22;;;;;;;4.47;1.70;;;;;;;;;;10448546;28;20224;-68
2022/07/28 22:10:24;;;;;;;7.73;2.13;;;;;;;;;;10453276;28;20188;-69
2022/07/28 22:15:25;;;;;;;8.63;2.10;;;;;;;;;;10428482;28;20299;-68
2022/07/28 22:20:26;;;;;;;8.43;2.50;;;;;;;;;;10435081;28;20215;-69
2022/07/28 22:25:27;;;;;;;5.73;1.87;;;;;;;;;;10451909;28;20629;-69
2022/07/28 22:30:28;;;;;;;8.60;2.17;;;;;;;;;;10441436;28;20275;-69
2022/07/28 22:35:29;;;;;;;4.40;1.80;;;;;;;;;;10433436;28;20220;-68
2022/07/28 22:40:30;;;;;;;7.47;2.23;;;;;;;;;;10436370;28;20228;-69
2022/07/28 22:45:31;;;;;;;6.03;2.93;;;;;;;;;;10441762;28;20312;-69
2022/07/28 22:50:33;;;;;;;5.67;2.13;;;;;;;;;;10450579;28;20207;-68
2022/07/28 22:55:39;;;;;;;6.37;1.87;;;;;;;;;;10435878;28;20220;-68
2022/07/28 23:00:40;;;;;;;5.57;2.30;;;;;;;;;;10427665;28;20259;-69
2022/07/28 23:05:44;;;;;;;6.97;1.97;;;;;;;;;;10439748;28;20228;-68
2022/07/28 23:10:45;;;;;;;3.43;2.00;;;;;;;;;;10420825;28;20298;-70
2022/07/28 23:15:46;;;;;;;6.47;1.87;;;;;;;;;;10426666;28;20692;-70
2022/07/28 23:20:47;;;;;;;6.17;1.67;;;;;;;;;;10435710;28;20706;-70
2022/07/28 23:25:48;;;;;;;8.60;1.90;;;;;;;;;;10438232;28;20219;-68
2022/07/28 23:30:49;;;;;;;5.03;2.07;;;;;;;;;;10448970;28;20230;-69
2022/07/28 23:35:50;;;;;;;3.77;2.00;;;;;;;;;;10436695;28;20222;-69
2022/07/28 23:40:51;;;;;;;3.63;1.67;;;;;;;;;;10446794;28;20643;-69
2022/07/28 23:45:52;;;;;;;5.40;2.00;;;;;;;;;;10431071;28;20278;-68
2022/07/28 23:50:56;;;;;;;6.00;1.97;;;;;;;;;;10437409;28;20315;-68
2022/07/28 23:55:57;;;;;;;4.47;1.80;;;;;;;;;;10446602;28;20664;-68
